sensor_id;sensor_type;location;lat;lon;timestamp;P1;durP1;ratioP1;P2;durP2;ratioP2
50757;SDS011;36732;47.980;11.652;2023-02-07T00:00:07;10.77;;;8.90;;
50757;SDS011;36732;47.980;11.652;2023-02-07T00:02:37;11.30;;;9.77;;
50757;SDS011;36732;47.980;11.652;2023-02-07T00:05:06;12.52;;;8.10;;
50757;SDS011;36732;47.980;11.652;2023-02-07T00:07:32;10.88;;;9.07;;
50757;SDS011;36732;47.980;11.652;2023-02-07T00:09:58;12.15;;;8.65;;
50757;SDS011;36732;47.980;11.652;2023-02-07T00:12:23;10.32;;;7.90;;
50757;SDS011;36732;47.980;11.652;2023-02-07T00:14:49;10.07;;;8.98;;
50757;SDS011;36732;47.980;11.652;2023-02-07T00:17:15;9.45;;;8.18;;
50757;SDS011;36732;47.980;11.652;2023-02-07T00:19:40;10.45;;;8.13;;
50757;SDS011;36732;47.980;11.652;2023-02-07T00:22:06;10.95;;;8.73;;
50757;SDS011;36732;47.980;11.652;2023-02-07T00:24:32;10.43;;;8.55;;
50757;SDS011;36732;47.980;11.652;2023-02-07T00:26:57;10.48;;;8.40;;
50757;SDS011;36732;47.980;11.652;2023-02-07T00:29:23;11.10;;;8.90;;
50757;SDS011;36732;47.980;11.652;2023-02-07T00:31:49;9.25;;;8.25;;
50757;SDS011;36732;47.980;11.652;2023-02-07T00:34:14;10.05;;;8.57;;
50757;SDS011;36732;47.980;11.652;2023-02-07T00:36:40;9.85;;;8.38;;
50757;SDS011;36732;47.980;11.652;2023-02-07T00:39:07;11.18;;;9.00;;
50757;SDS011;36732;47.980;11.652;2023-02-07T00:41:38;10.60;;;8.15;;
50757;SDS011;36732;47.980;11.652;2023-02-07T00:44:05;10.15;;;8.65;;
50757;SDS011;36732;47.980;11.652;2023-02-07T00:46:31;9.48;;;8.25;;
50757;SDS011;36732;47.980;11.652;2023-02-07T00:48:58;9.77;;;8.73;;
50757;SDS011;36732;47.980;11.652;2023-02-07T00:51:24;11.07;;;9.00;;
50757;SDS011;36732;47.980;11.652;2023-02-07T00:53:51;10.98;;;9.52;;
50757;SDS011;36732;47.980;11.652;2023-02-07T00:56:18;10.15;;;8.52;;
50757;SDS011;36732;47.980;11.652;2023-02-07T00:58:47;9.45;;;8.38;;
50757;SDS011;36732;47.980;11.652;2023-02-07T01:01:12;13.40;;;8.65;;
50757;SDS011;36732;47.980;11.652;2023-02-07T01:03:39;10.10;;;8.45;;
50757;SDS011;36732;47.980;11.652;2023-02-07T01:06:05;10.60;;;8.77;;
50757;SDS011;36732;47.980;11.652;2023-02-07T01:08:32;11.52;;;8.93;;
50757;SDS011;36732;47.980;11.652;2023-02-07T01:11:00;11.32;;;8.35;;
50757;SDS011;36732;47.980;11.652;2023-02-07T01:13:35;9.43;;;7.65;;
50757;SDS011;36732;47.980;11.652;2023-02-07T01:16:02;10.35;;;8.15;;
50757;SDS011;36732;47.980;11.652;2023-02-07T01:18:28;11.77;;;8.70;;
50757;SDS011;36732;47.980;11.652;2023-02-07T01:20:54;10.40;;;8.27;;
50757;SDS011;36732;47.980;11.652;2023-02-07T01:23:20;10.00;;;8.45;;
50757;SDS011;36732;47.980;11.652;2023-02-07T01:25:46;10.15;;;8.02;;
50757;SDS011;36732;47.980;11.652;2023-02-07T01:28:12;10.98;;;8.15;;
50757;SDS011;36732;47.980;11.652;2023-02-07T01:30:39;11.40;;;8.82;;
50757;SDS011;36732;47.980;11.652;2023-02-07T01:33:07;11.25;;;8.25;;
50757;SDS011;36732;47.980;11.652;2023-02-07T01:35:34;11.38;;;8.05;;
50757;SDS011;36732;47.980;11.652;2023-02-07T01:38:01;9.38;;;7.88;;
50757;SDS011;36732;47.980;11.652;2023-02-07T01:40:27;11.15;;;8.00;;
50757;SDS011;36732;47.980;11.652;2023-02-07T01:42:55;12.07;;;9.07;;
50757;SDS011;36732;47.980;11.652;2023-02-07T01:45:27;8.55;;;7.68;;
50757;SDS011;36732;47.980;11.652;2023-02-07T01:48:07;10.65;;;8.32;;
50757;SDS011;36732;47.980;11.652;2023-02-07T01:50:40;12.55;;;7.75;;
50757;SDS011;36732;47.980;11.652;2023-02-07T01:53:08;8.90;;;7.70;;
50757;SDS011;36732;47.980;11.652;2023-02-07T01:55:36;11.82;;;8.18;;
50757;SDS011;36732;47.980;11.652;2023-02-07T01:58:05;9.20;;;7.13;;
50757;SDS011;36732;47.980;11.652;2023-02-07T02:00:31;9.60;;;7.28;;
50757;SDS011;36732;47.980;11.652;2023-02-07T02:02:58;8.48;;;6.90;;
50757;SDS011;36732;47.980;11.652;2023-02-07T02:05:25;10.85;;;8.80;;
50757;SDS011;36732;47.980;11.652;2023-02-07T02:07:53;10.00;;;7.38;;
50757;SDS011;36732;47.980;11.652;2023-02-07T02:10:21;8.88;;;7.13;;
50757;SDS011;36732;47.980;11.652;2023-02-07T02:23:34;10.10;;;7.63;;
50757;SDS011;36732;47.980;11.652;2023-02-07T02:32:32;10.82;;;8.07;;
50757;SDS011;36732;47.980;11.652;2023-02-07T02:40:51;11.15;;;7.97;;
50757;SDS011;36732;47.980;11.652;2023-02-07T02:44:03;9.55;;;6.95;;
50757;SDS011;36732;47.980;11.652;2023-02-07T02:46:29;9.15;;;6.88;;
50757;SDS011;36732;47.980;11.652;2023-02-07T02:48:58;9.93;;;7.93;;
50757;SDS011;36732;47.980;11.652;2023-02-07T02:51:29;8.93;;;6.88;;
50757;SDS011;36732;47.980;11.652;2023-02-07T02:53:56;11.27;;;7.07;;
50757;SDS011;36732;47.980;11.652;2023-02-07T03:02:20;9.52;;;7.45;;
50757;SDS011;36732;47.980;11.652;2023-02-07T03:15:32;10.05;;;7.03;;
50757;SDS011;36732;47.980;11.652;2023-02-07T03:18:28;9.05;;;6.82;;
50757;SDS011;36732;47.980;11.652;2023-02-07T03:21:20;10.10;;;6.80;;
50757;SDS011;36732;47.980;11.652;2023-02-07T03:23:54;9.80;;;6.95;;
50757;SDS011;36732;47.980;11.652;2023-02-07T03:26:22;11.95;;;8.35;;
50757;SDS011;36732;47.980;11.652;2023-02-07T03:28:49;9.13;;;6.78;;
50757;SDS011;36732;47.980;11.652;2023-02-07T03:31:19;7.60;;;6.22;;
50757;SDS011;36732;47.980;11.652;2023-02-07T03:33:48;11.02;;;7.43;;
50757;SDS011;36732;47.980;11.652;2023-02-07T03:36:29;9.23;;;7.03;;
50757;SDS011;36732;47.980;11.652;2023-02-07T03:39:04;9.05;;;7.78;;
50757;SDS011;36732;47.980;11.652;2023-02-07T03:41:40;8.45;;;6.25;;
50757;SDS011;36732;47.980;11.652;2023-02-07T03:44:13;9.77;;;7.63;;
50757;SDS011;36732;47.980;11.652;2023-02-07T03:46:40;9.25;;;6.38;;
50757;SDS011;36732;47.980;11.652;2023-02-07T03:49:06;10.75;;;7.50;;
50757;SDS011;36732;47.980;11.652;2023-02-07T03:51:32;12.52;;;8.07;;
50757;SDS011;36732;47.980;11.652;2023-02-07T03:54:00;7.68;;;6.65;;
50757;SDS011;36732;47.980;11.652;2023-02-07T03:56:25;9.75;;;7.32;;
50757;SDS011;36732;47.980;11.652;2023-02-07T03:58:51;10.57;;;7.47;;
50757;SDS011;36732;47.980;11.652;2023-02-07T04:01:17;9.60;;;7.18;;
50757;SDS011;36732;47.980;11.652;2023-02-07T04:03:42;10.05;;;7.68;;
50757;SDS011;36732;47.980;11.652;2023-02-07T04:06:08;8.88;;;6.88;;
50757;SDS011;36732;47.980;11.652;2023-02-07T04:08:34;9.38;;;6.97;;
50757;SDS011;36732;47.980;11.652;2023-02-07T04:11:00;8.35;;;6.53;;
50757;SDS011;36732;47.980;11.652;2023-02-07T04:13:28;10.05;;;6.80;;
50757;SDS011;36732;47.980;11.652;2023-02-07T04:15:54;10.73;;;6.95;;
50757;SDS011;36732;47.980;11.652;2023-02-07T04:18:20;9.50;;;6.93;;
50757;SDS011;36732;47.980;11.652;2023-02-07T04:20:46;7.88;;;6.68;;
50757;SDS011;36732;47.980;11.652;2023-02-07T04:23:12;8.95;;;6.50;;
50757;SDS011;36732;47.980;11.652;2023-02-07T04:25:38;10.23;;;6.68;;
50757;SDS011;36732;47.980;11.652;2023-02-07T04:28:04;10.23;;;6.95;;
50757;SDS011;36732;47.980;11.652;2023-02-07T04:30:31;7.93;;;6.60;;
50757;SDS011;36732;47.980;11.652;2023-02-07T04:32:57;10.02;;;7.25;;
50757;SDS011;36732;47.980;11.652;2023-02-07T04:35:23;9.15;;;6.75;;
50757;SDS011;36732;47.980;11.652;2023-02-07T04:37:49;10.18;;;6.97;;
50757;SDS011;36732;47.980;11.652;2023-02-07T04:40:15;9.55;;;7.43;;
50757;SDS011;36732;47.980;11.652;2023-02-07T04:42:41;8.95;;;6.85;;
50757;SDS011;36732;47.980;11.652;2023-02-07T04:45:06;9.50;;;6.90;;
50757;SDS011;36732;47.980;11.652;2023-02-07T04:47:33;9.52;;;7.30;;
50757;SDS011;36732;47.980;11.652;2023-02-07T04:49:58;9.32;;;7.30;;
50757;SDS011;36732;47.980;11.652;2023-02-07T04:52:24;10.15;;;6.95;;
50757;SDS011;36732;47.980;11.652;2023-02-07T04:54:50;9.50;;;7.05;;
50757;SDS011;36732;47.980;11.652;2023-02-07T04:57:15;12.88;;;6.20;;
50757;SDS011;36732;47.980;11.652;2023-02-07T04:59:41;8.48;;;6.55;;
50757;SDS011;36732;47.980;11.652;2023-02-07T05:02:07;11.00;;;7.35;;
50757;SDS011;36732;47.980;11.652;2023-02-07T05:04:32;9.68;;;7.57;;
50757;SDS011;36732;47.980;11.652;2023-02-07T05:06:58;10.05;;;6.68;;
50757;SDS011;36732;47.980;11.652;2023-02-07T05:09:24;7.72;;;6.18;;
50757;SDS011;36732;47.980;11.652;2023-02-07T05:11:49;8.57;;;6.30;;
50757;SDS011;36732;47.980;11.652;2023-02-07T05:14:15;8.95;;;6.85;;
50757;SDS011;36732;47.980;11.652;2023-02-07T05:16:41;9.63;;;6.75;;
50757;SDS011;36732;47.980;11.652;2023-02-07T05:19:07;9.35;;;7.25;;
50757;SDS011;36732;47.980;11.652;2023-02-07T05:21:32;9.50;;;7.28;;
50757;SDS011;36732;47.980;11.652;2023-02-07T05:23:58;8.05;;;6.50;;
50757;SDS011;36732;47.980;11.652;2023-02-07T05:26:24;10.02;;;7.80;;
50757;SDS011;36732;47.980;11.652;2023-02-07T05:28:49;8.13;;;6.80;;
50757;SDS011;36732;47.980;11.652;2023-02-07T05:31:15;9.23;;;6.75;;
50757;SDS011;36732;47.980;11.652;2023-02-07T05:33:41;15.05;;;8.00;;
50757;SDS011;36732;47.980;11.652;2023-02-07T05:36:07;9.05;;;6.35;;
50757;SDS011;36732;47.980;11.652;2023-02-07T05:38:33;10.35;;;7.22;;
50757;SDS011;36732;47.980;11.652;2023-02-07T05:40:59;9.95;;;7.93;;
50757;SDS011;36732;47.980;11.652;2023-02-07T05:43:25;12.18;;;7.68;;
50757;SDS011;36732;47.980;11.652;2023-02-07T05:45:50;9.38;;;7.07;;
50757;SDS011;36732;47.980;11.652;2023-02-07T05:48:16;19.17;;;7.78;;
50757;SDS011;36732;47.980;11.652;2023-02-07T05:50:42;11.27;;;7.85;;
50757;SDS011;36732;47.980;11.652;2023-02-07T05:53:08;9.18;;;7.68;;
50757;SDS011;36732;47.980;11.652;2023-02-07T05:55:34;9.85;;;7.80;;
50757;SDS011;36732;47.980;11.652;2023-02-07T05:58:00;8.98;;;7.13;;
50757;SDS011;36732;47.980;11.652;2023-02-07T06:00:26;9.05;;;6.50;;
50757;SDS011;36732;47.980;11.652;2023-02-07T06:02:52;9.27;;;6.90;;
50757;SDS011;36732;47.980;11.652;2023-02-07T06:05:18;9.13;;;6.65;;
50757;SDS011;36732;47.980;11.652;2023-02-07T06:07:44;8.80;;;6.07;;
50757;SDS011;36732;47.980;11.652;2023-02-07T06:10:10;9.10;;;6.03;;
50757;SDS011;36732;47.980;11.652;2023-02-07T06:12:37;7.20;;;5.60;;
50757;SDS011;36732;47.980;11.652;2023-02-07T06:15:03;10.23;;;6.78;;
50757;SDS011;36732;47.980;11.652;2023-02-07T06:17:29;8.70;;;6.25;;
50757;SDS011;36732;47.980;11.652;2023-02-07T06:19:55;10.52;;;5.80;;
50757;SDS011;36732;47.980;11.652;2023-02-07T06:22:20;8.27;;;5.72;;
50757;SDS011;36732;47.980;11.652;2023-02-07T06:24:47;8.63;;;6.45;;
50757;SDS011;36732;47.980;11.652;2023-02-07T06:27:12;13.35;;;7.30;;
50757;SDS011;36732;47.980;11.652;2023-02-07T06:29:38;9.43;;;6.95;;
50757;SDS011;36732;47.980;11.652;2023-02-07T06:32:04;8.15;;;6.40;;
50757;SDS011;36732;47.980;11.652;2023-02-07T06:34:29;9.02;;;6.40;;
50757;SDS011;36732;47.980;11.652;2023-02-07T06:36:55;11.10;;;6.65;;
50757;SDS011;36732;47.980;11.652;2023-02-07T06:39:21;8.82;;;6.22;;
50757;SDS011;36732;47.980;11.652;2023-02-07T06:41:47;8.32;;;6.70;;
50757;SDS011;36732;47.980;11.652;2023-02-07T06:44:12;10.00;;;7.22;;
50757;SDS011;36732;47.980;11.652;2023-02-07T06:46:38;10.40;;;7.32;;
50757;SDS011;36732;47.980;11.652;2023-02-07T06:49:04;9.75;;;6.93;;
50757;SDS011;36732;47.980;11.652;2023-02-07T06:51:29;10.10;;;7.57;;
50757;SDS011;36732;47.980;11.652;2023-02-07T06:53:55;10.77;;;6.82;;
50757;SDS011;36732;47.980;11.652;2023-02-07T06:56:21;9.15;;;7.05;;
50757;SDS011;36732;47.980;11.652;2023-02-07T06:58:47;10.18;;;7.03;;
50757;SDS011;36732;47.980;11.652;2023-02-07T07:01:12;9.30;;;6.10;;
50757;SDS011;36732;47.980;11.652;2023-02-07T07:03:43;8.68;;;6.25;;
50757;SDS011;36732;47.980;11.652;2023-02-07T07:06:10;9.13;;;5.85;;
50757;SDS011;36732;47.980;11.652;2023-02-07T07:08:36;7.28;;;5.88;;
50757;SDS011;36732;47.980;11.652;2023-02-07T07:11:02;8.73;;;6.35;;
50757;SDS011;36732;47.980;11.652;2023-02-07T07:13:28;10.18;;;7.20;;
50757;SDS011;36732;47.980;11.652;2023-02-07T07:15:53;8.38;;;6.20;;
50757;SDS011;36732;47.980;11.652;2023-02-07T07:18:19;9.13;;;6.53;;
50757;SDS011;36732;47.980;11.652;2023-02-07T07:20:45;10.57;;;7.25;;
50757;SDS011;36732;47.980;11.652;2023-02-07T07:23:10;12.52;;;7.43;;
50757;SDS011;36732;47.980;11.652;2023-02-07T07:25:36;11.05;;;7.43;;
50757;SDS011;36732;47.980;11.652;2023-02-07T07:28:02;9.02;;;7.00;;
50757;SDS011;36732;47.980;11.652;2023-02-07T07:30:28;9.77;;;7.05;;
50757;SDS011;36732;47.980;11.652;2023-02-07T07:32:54;10.45;;;8.02;;
50757;SDS011;36732;47.980;11.652;2023-02-07T07:35:19;10.93;;;7.60;;
50757;SDS011;36732;47.980;11.652;2023-02-07T07:37:45;11.35;;;7.30;;
50757;SDS011;36732;47.980;11.652;2023-02-07T07:40:11;9.70;;;6.97;;
50757;SDS011;36732;47.980;11.652;2023-02-07T07:42:36;11.23;;;7.55;;
50757;SDS011;36732;47.980;11.652;2023-02-07T07:45:02;11.98;;;7.75;;
50757;SDS011;36732;47.980;11.652;2023-02-07T07:47:29;9.57;;;7.20;;
50757;SDS011;36732;47.980;11.652;2023-02-07T07:49:54;10.68;;;8.00;;
50757;SDS011;36732;47.980;11.652;2023-02-07T07:52:20;10.52;;;7.32;;
50757;SDS011;36732;47.980;11.652;2023-02-07T07:54:46;11.05;;;8.00;;
50757;SDS011;36732;47.980;11.652;2023-02-07T07:57:11;8.52;;;6.88;;
50757;SDS011;36732;47.980;11.652;2023-02-07T07:59:37;10.90;;;8.20;;
50757;SDS011;36732;47.980;11.652;2023-02-07T08:02:03;10.95;;;8.60;;
50757;SDS011;36732;47.980;11.652;2023-02-07T08:04:29;12.90;;;8.25;;
50757;SDS011;36732;47.980;11.652;2023-02-07T08:06:54;12.65;;;8.55;;
50757;SDS011;36732;47.980;11.652;2023-02-07T08:09:21;10.75;;;7.70;;
50757;SDS011;36732;47.980;11.652;2023-02-07T08:11:47;11.48;;;8.02;;
50757;SDS011;36732;47.980;11.652;2023-02-07T08:14:12;11.32;;;7.72;;
50757;SDS011;36732;47.980;11.652;2023-02-07T08:16:38;10.00;;;8.02;;
50757;SDS011;36732;47.980;11.652;2023-02-07T08:19:04;10.30;;;7.55;;
50757;SDS011;36732;47.980;11.652;2023-02-07T08:21:30;10.60;;;8.00;;
50757;SDS011;36732;47.980;11.652;2023-02-07T08:23:56;10.75;;;6.95;;
50757;SDS011;36732;47.980;11.652;2023-02-07T08:26:22;10.25;;;7.82;;
50757;SDS011;36732;47.980;11.652;2023-02-07T08:28:47;10.05;;;8.07;;
50757;SDS011;36732;47.980;11.652;2023-02-07T08:31:16;10.77;;;7.95;;
50757;SDS011;36732;47.980;11.652;2023-02-07T08:33:42;14.43;;;7.75;;
50757;SDS011;36732;47.980;11.652;2023-02-07T08:36:08;10.10;;;7.97;;
50757;SDS011;36732;47.980;11.652;2023-02-07T08:38:35;11.18;;;8.25;;
50757;SDS011;36732;47.980;11.652;2023-02-07T08:41:02;12.90;;;8.65;;
50757;SDS011;36732;47.980;11.652;2023-02-07T08:43:28;10.52;;;8.23;;
50757;SDS011;36732;47.980;11.652;2023-02-07T08:45:54;11.60;;;9.05;;
50757;SDS011;36732;47.980;11.652;2023-02-07T08:48:20;10.82;;;8.65;;
50757;SDS011;36732;47.980;11.652;2023-02-07T08:50:46;11.57;;;9.13;;
50757;SDS011;36732;47.980;11.652;2023-02-07T08:53:12;11.48;;;8.63;;
50757;SDS011;36732;47.980;11.652;2023-02-07T08:55:40;9.45;;;8.05;;
50757;SDS011;36732;47.980;11.652;2023-02-07T08:58:07;11.65;;;8.48;;
50757;SDS011;36732;47.980;11.652;2023-02-07T09:00:33;15.48;;;8.95;;
50757;SDS011;36732;47.980;11.652;2023-02-07T09:03:03;11.00;;;7.72;;
50757;SDS011;36732;47.980;11.652;2023-02-07T09:05:29;9.68;;;7.85;;
50757;SDS011;36732;47.980;11.652;2023-02-07T09:07:57;9.27;;;7.50;;
50757;SDS011;36732;47.980;11.652;2023-02-07T09:10:24;10.38;;;8.35;;
50757;SDS011;36732;47.980;11.652;2023-02-07T09:12:50;9.38;;;8.38;;
50757;SDS011;36732;47.980;11.652;2023-02-07T09:15:16;8.68;;;7.60;;
50757;SDS011;36732;47.980;11.652;2023-02-07T09:17:42;9.63;;;7.90;;
50757;SDS011;36732;47.980;11.652;2023-02-07T09:20:07;10.52;;;8.27;;
50757;SDS011;36732;47.980;11.652;2023-02-07T09:22:34;10.57;;;8.52;;
50757;SDS011;36732;47.980;11.652;2023-02-07T09:25:20;11.77;;;8.18;;
50757;SDS011;36732;47.980;11.652;2023-02-07T09:27:45;11.20;;;8.10;;
50757;SDS011;36732;47.980;11.652;2023-02-07T09:30:11;9.35;;;7.93;;
50757;SDS011;36732;47.980;11.652;2023-02-07T09:32:37;11.52;;;9.05;;
50757;SDS011;36732;47.980;11.652;2023-02-07T09:35:03;14.23;;;8.52;;
50757;SDS011;36732;47.980;11.652;2023-02-07T09:37:30;11.63;;;7.68;;
50757;SDS011;36732;47.980;11.652;2023-02-07T09:39:55;10.02;;;8.00;;
50757;SDS011;36732;47.980;11.652;2023-02-07T09:42:24;10.73;;;8.20;;
50757;SDS011;36732;47.980;11.652;2023-02-07T09:45:17;10.40;;;8.68;;
50757;SDS011;36732;47.980;11.652;2023-02-07T09:47:48;11.57;;;7.65;;
50757;SDS011;36732;47.980;11.652;2023-02-07T09:50:22;12.30;;;8.45;;
50757;SDS011;36732;47.980;11.652;2023-02-07T09:53:03;11.75;;;8.57;;
50757;SDS011;36732;47.980;11.652;2023-02-07T09:55:42;10.52;;;8.18;;
50757;SDS011;36732;47.980;11.652;2023-02-07T09:58:26;10.48;;;7.97;;
50757;SDS011;36732;47.980;11.652;2023-02-07T10:06:47;10.07;;;7.93;;
50757;SDS011;36732;47.980;11.652;2023-02-07T10:09:18;10.52;;;9.27;;
50757;SDS011;36732;47.980;11.652;2023-02-07T10:11:50;12.18;;;9.70;;
50757;SDS011;36732;47.980;11.652;2023-02-07T10:14:39;12.65;;;9.75;;
50757;SDS011;36732;47.980;11.652;2023-02-07T10:20:40;11.95;;;9.20;;
50757;SDS011;36732;47.980;11.652;2023-02-07T10:32:36;10.75;;;8.52;;
50757;SDS011;36732;47.980;11.652;2023-02-07T10:35:23;13.55;;;9.63;;
50757;SDS011;36732;47.980;11.652;2023-02-07T10:37:59;12.93;;;9.90;;
50757;SDS011;36732;47.980;11.652;2023-02-07T10:40:43;12.98;;;9.23;;
50757;SDS011;36732;47.980;11.652;2023-02-07T10:43:27;11.82;;;8.65;;
50757;SDS011;36732;47.980;11.652;2023-02-07T10:46:01;10.60;;;9.30;;
50757;SDS011;36732;47.980;11.652;2023-02-07T10:48:30;11.50;;;9.25;;
50757;SDS011;36732;47.980;11.652;2023-02-07T10:50:56;10.82;;;8.30;;
50757;SDS011;36732;47.980;11.652;2023-02-07T10:56:19;9.93;;;7.82;;
50757;SDS011;36732;47.980;11.652;2023-02-07T10:58:51;11.38;;;8.63;;
50757;SDS011;36732;47.980;11.652;2023-02-07T11:01:19;11.63;;;7.95;;
50757;SDS011;36732;47.980;11.652;2023-02-07T11:03:51;10.65;;;8.88;;
50757;SDS011;36732;47.980;11.652;2023-02-07T11:06:28;11.10;;;8.52;;
50757;SDS011;36732;47.980;11.652;2023-02-07T11:11:48;9.07;;;7.55;;
50757;SDS011;36732;47.980;11.652;2023-02-07T11:14:19;10.43;;;8.30;;
50757;SDS011;36732;47.980;11.652;2023-02-07T11:16:53;9.45;;;7.30;;
50757;SDS011;36732;47.980;11.652;2023-02-07T11:19:27;10.40;;;8.10;;
50757;SDS011;36732;47.980;11.652;2023-02-07T11:21:56;8.85;;;7.20;;
50757;SDS011;36732;47.980;11.652;2023-02-07T11:27:13;8.68;;;6.55;;
50757;SDS011;36732;47.980;11.652;2023-02-07T11:29:51;8.70;;;6.88;;
50757;SDS011;36732;47.980;11.652;2023-02-07T11:32:20;10.75;;;7.45;;
50757;SDS011;36732;47.980;11.652;2023-02-07T11:34:58;8.20;;;6.45;;
50757;SDS011;36732;47.980;11.652;2023-02-07T11:37:31;8.20;;;6.93;;
50757;SDS011;36732;47.980;11.652;2023-02-07T11:42:43;8.80;;;6.90;;
50757;SDS011;36732;47.980;11.652;2023-02-07T11:45:13;10.52;;;7.65;;
50757;SDS011;36732;47.980;11.652;2023-02-07T11:47:42;8.48;;;6.65;;
50757;SDS011;36732;47.980;11.652;2023-02-07T11:50:29;7.85;;;6.63;;
50757;SDS011;36732;47.980;11.652;2023-02-07T11:52:59;9.02;;;6.93;;
50757;SDS011;36732;47.980;11.652;2023-02-07T11:55:29;8.07;;;6.95;;
50757;SDS011;36732;47.980;11.652;2023-02-07T11:58:28;9.88;;;7.47;;
50757;SDS011;36732;47.980;11.652;2023-02-07T12:01:04;11.43;;;7.57;;
50757;SDS011;36732;47.980;11.652;2023-02-07T12:03:41;9.93;;;7.28;;
50757;SDS011;36732;47.980;11.652;2023-02-07T12:06:15;12.60;;;7.03;;
50757;SDS011;36732;47.980;11.652;2023-02-07T12:08:44;11.80;;;7.97;;
50757;SDS011;36732;47.980;11.652;2023-02-07T12:11:11;9.73;;;8.50;;
50757;SDS011;36732;47.980;11.652;2023-02-07T12:13:45;15.63;;;9.90;;
50757;SDS011;36732;47.980;11.652;2023-02-07T12:16:16;11.80;;;8.70;;
50757;SDS011;36732;47.980;11.652;2023-02-07T12:18:51;9.52;;;7.80;;
50757;SDS011;36732;47.980;11.652;2023-02-07T12:21:30;8.70;;;7.45;;
50757;SDS011;36732;47.980;11.652;2023-02-07T12:27:28;8.00;;;6.70;;
50757;SDS011;36732;47.980;11.652;2023-02-07T12:32:59;10.68;;;7.93;;
50757;SDS011;36732;47.980;11.652;2023-02-07T12:35:42;11.27;;;7.90;;
50757;SDS011;36732;47.980;11.652;2023-02-07T12:38:25;8.20;;;6.70;;
50757;SDS011;36732;47.980;11.652;2023-02-07T12:47:03;8.95;;;7.22;;
50757;SDS011;36732;47.980;11.652;2023-02-07T12:55:39;8.55;;;7.05;;
50757;SDS011;36732;47.980;11.652;2023-02-07T13:06:57;11.10;;;7.13;;
50757;SDS011;36732;47.980;11.652;2023-02-07T13:12:51;9.55;;;6.38;;
50757;SDS011;36732;47.980;11.652;2023-02-07T13:18:11;11.20;;;6.25;;
50757;SDS011;36732;47.980;11.652;2023-02-07T13:23:47;11.93;;;9.27;;
50757;SDS011;36732;47.980;11.652;2023-02-07T13:26:17;13.82;;;10.48;;
50757;SDS011;36732;47.980;11.652;2023-02-07T13:28:47;13.77;;;10.50;;
50757;SDS011;36732;47.980;11.652;2023-02-07T13:31:24;11.07;;;8.80;;
50757;SDS011;36732;47.980;11.652;2023-02-07T13:34:00;12.07;;;8.65;;
50757;SDS011;36732;47.980;11.652;2023-02-07T13:44:41;12.73;;;10.60;;
50757;SDS011;36732;47.980;11.652;2023-02-07T13:47:53;10.38;;;8.23;;
50757;SDS011;36732;47.980;11.652;2023-02-07T13:50:46;9.02;;;7.75;;
50757;SDS011;36732;47.980;11.652;2023-02-07T13:53:30;7.25;;;6.25;;
50757;SDS011;36732;47.980;11.652;2023-02-07T13:56:07;8.82;;;6.90;;
50757;SDS011;36732;47.980;11.652;2023-02-07T13:58:54;7.88;;;6.47;;
50757;SDS011;36732;47.980;11.652;2023-02-07T14:01:49;8.10;;;6.10;;
50757;SDS011;36732;47.980;11.652;2023-02-07T14:04:18;8.00;;;5.40;;
50757;SDS011;36732;47.980;11.652;2023-02-07T14:09:21;6.32;;;5.35;;
50757;SDS011;36732;47.980;11.652;2023-02-07T14:12:00;7.53;;;5.70;;
50757;SDS011;36732;47.980;11.652;2023-02-07T14:14:49;6.30;;;5.00;;
50757;SDS011;36732;47.980;11.652;2023-02-07T14:19:52;7.65;;;6.05;;
50757;SDS011;36732;47.980;11.652;2023-02-07T14:41:14;6.55;;;4.85;;
50757;SDS011;36732;47.980;11.652;2023-02-07T14:43:51;7.43;;;4.78;;
50757;SDS011;36732;47.980;11.652;2023-02-07T14:46:39;7.25;;;5.47;;
50757;SDS011;36732;47.980;11.652;2023-02-07T14:49:18;7.40;;;5.57;;
50757;SDS011;36732;47.980;11.652;2023-02-07T14:51:58;7.20;;;5.80;;
50757;SDS011;36732;47.980;11.652;2023-02-07T14:54:34;8.68;;;5.90;;
50757;SDS011;36732;47.980;11.652;2023-02-07T14:57:35;5.93;;;5.13;;
50757;SDS011;36732;47.980;11.652;2023-02-07T15:00:30;7.93;;;5.05;;
50757;SDS011;36732;47.980;11.652;2023-02-07T15:03:02;8.77;;;5.78;;
50757;SDS011;36732;47.980;11.652;2023-02-07T15:05:57;7.47;;;5.63;;
50757;SDS011;36732;47.980;11.652;2023-02-07T15:08:31;6.53;;;4.50;;
50757;SDS011;36732;47.980;11.652;2023-02-07T15:11:00;5.95;;;5.05;;
50757;SDS011;36732;47.980;11.652;2023-02-07T15:13:36;8.90;;;5.43;;
50757;SDS011;36732;47.980;11.652;2023-02-07T15:16:06;6.72;;;5.05;;
50757;SDS011;36732;47.980;11.652;2023-02-07T15:18:40;9.15;;;5.65;;
50757;SDS011;36732;47.980;11.652;2023-02-07T15:24:17;8.05;;;5.80;;
50757;SDS011;36732;47.980;11.652;2023-02-07T15:27:05;8.35;;;6.13;;
50757;SDS011;36732;47.980;11.652;2023-02-07T15:29:52;7.00;;;5.55;;
50757;SDS011;36732;47.980;11.652;2023-02-07T15:34:57;9.07;;;6.50;;
50757;SDS011;36732;47.980;11.652;2023-02-07T15:40:06;11.10;;;6.90;;
50757;SDS011;36732;47.980;11.652;2023-02-07T15:42:47;8.30;;;6.22;;
50757;SDS011;36732;47.980;11.652;2023-02-07T15:45:22;10.13;;;7.07;;
50757;SDS011;36732;47.980;11.652;2023-02-07T15:47:56;8.07;;;6.63;;
50757;SDS011;36732;47.980;11.652;2023-02-07T15:50:38;9.02;;;7.15;;
50757;SDS011;36732;47.980;11.652;2023-02-07T15:53:04;9.32;;;7.13;;
50757;SDS011;36732;47.980;11.652;2023-02-07T15:55:36;9.88;;;7.55;;
50757;SDS011;36732;47.980;11.652;2023-02-07T15:58:16;15.80;;;8.15;;
50757;SDS011;36732;47.980;11.652;2023-02-07T16:00:50;9.88;;;7.57;;
50757;SDS011;36732;47.980;11.652;2023-02-07T16:03:26;12.20;;;8.35;;
50757;SDS011;36732;47.980;11.652;2023-02-07T16:06:37;13.32;;;9.05;;
50757;SDS011;36732;47.980;11.652;2023-02-07T16:08:53;9.95;;;7.68;;
50757;SDS011;36732;47.980;11.652;2023-02-07T16:16:20;15.18;;;10.02;;
50757;SDS011;36732;47.980;11.652;2023-02-07T16:21:39;10.68;;;7.57;;
50757;SDS011;36732;47.980;11.652;2023-02-07T16:24:08;12.02;;;7.95;;
50757;SDS011;36732;47.980;11.652;2023-02-07T16:26:42;11.25;;;7.80;;
50757;SDS011;36732;47.980;11.652;2023-02-07T16:29:14;10.63;;;7.72;;
50757;SDS011;36732;47.980;11.652;2023-02-07T16:31:43;11.23;;;7.60;;
50757;SDS011;36732;47.980;11.652;2023-02-07T16:34:13;10.32;;;7.65;;
50757;SDS011;36732;47.980;11.652;2023-02-07T16:36:41;11.15;;;7.47;;
50757;SDS011;36732;47.980;11.652;2023-02-07T16:39:08;11.73;;;7.57;;
50757;SDS011;36732;47.980;11.652;2023-02-07T16:41:36;9.75;;;7.03;;
50757;SDS011;36732;47.980;11.652;2023-02-07T16:44:06;10.18;;;7.03;;
50757;SDS011;36732;47.980;11.652;2023-02-07T16:46:38;10.90;;;8.00;;
50757;SDS011;36732;47.980;11.652;2023-02-07T16:49:13;9.57;;;6.60;;
50757;SDS011;36732;47.980;11.652;2023-02-07T16:51:41;9.57;;;6.80;;
50757;SDS011;36732;47.980;11.652;2023-02-07T16:54:08;11.48;;;7.45;;
50757;SDS011;36732;47.980;11.652;2023-02-07T16:56:34;11.80;;;7.85;;
50757;SDS011;36732;47.980;11.652;2023-02-07T16:59:00;10.35;;;8.13;;
50757;SDS011;36732;47.980;11.652;2023-02-07T17:01:27;8.45;;;6.82;;
50757;SDS011;36732;47.980;11.652;2023-02-07T17:03:54;10.38;;;6.75;;
50757;SDS011;36732;47.980;11.652;2023-02-07T17:06:20;10.68;;;7.13;;
50757;SDS011;36732;47.980;11.652;2023-02-07T17:08:48;11.80;;;8.10;;
50757;SDS011;36732;47.980;11.652;2023-02-07T17:11:19;11.75;;;7.53;;
50757;SDS011;36732;47.980;11.652;2023-02-07T17:13:57;11.10;;;8.23;;
50757;SDS011;36732;47.980;11.652;2023-02-07T17:16:23;9.77;;;6.95;;
50757;SDS011;36732;47.980;11.652;2023-02-07T17:18:51;11.15;;;8.00;;